Time;durP1;ratioP1;P1;durP2;ratioP2;P2;SDS_P1;SDS_P2;PMS_P1;PMS_P2;Temp;Humidity;BMP_temperature;BMP_pressure;BME280_temperature;BME280_humidity;BME280_pressure;Samples;Min_cycle;Max_cycle;Signal;HPM_P1;HPM_P2
2022/03/16 00:00:19;;;;;;;151.10;67.63;;;;;;;4.82;100.00;102487.63;4947934;28;20035;-74
2022/03/16 00:02:45;;;;;;;162.38;71.80;;;;;;;4.75;100.00;102481.13;4929606;28;20054;-73
2022/03/16 00:05:11;;;;;;;147.45;69.57;;;;;;;4.69;100.00;102482.50;4928823;28;20037;-73
2022/03/16 00:07:36;;;;;;;154.10;67.80;;;;;;;4.66;100.00;102476.56;4933444;28;20042;-74
2022/03/16 00:10:03;;;;;;;164.32;73.05;;;;;;;4.64;100.00;102478.56;4942252;28;20121;-74
2022/03/16 00:12:29;;;;;;;161.15;73.28;;;;;;;4.60;100.00;102474.44;4932846;28;20636;-74
2022/03/16 00:14:54;;;;;;;163.68;73.15;;;;;;;4.59;100.00;102470.09;4944628;28;20065;-74
2022/03/16 00:17:20;;;;;;;165.05;73.43;;;;;;;4.51;100.00;102468.94;4938679;28;20051;-74
2022/03/16 00:19:46;;;;;;;155.40;71.22;;;;;;;4.50;100.00;102471.75;4935112;28;20070;-74
2022/03/16 00:22:12;;;;;;;166.13;73.53;;;;;;;4.56;100.00;102476.53;4944740;28;20038;-74
2022/03/16 00:24:37;;;;;;;154.27;69.63;;;;;;;4.49;100.00;102481.59;4930285;28;20833;-74
2022/03/16 00:27:03;;;;;;;155.70;68.57;;;;;;;4.42;100.00;102474.22;4942240;28;20053;-74
2022/03/16 00:29:29;;;;;;;160.15;70.75;;;;;;;4.39;100.00;102486.03;4927007;28;20146;-74
2022/03/16 00:31:55;;;;;;;148.52;65.47;;;;;;;4.31;100.00;102483.97;4943105;28;20054;-74
2022/03/16 00:34:20;;;;;;;153.55;69.85;;;;;;;4.24;100.00;102482.81;4927565;28;20058;-74
2022/03/16 00:36:47;;;;;;;147.48;67.45;;;;;;;4.16;100.00;102479.97;4948686;28;20143;-74
2022/03/16 00:39:12;;;;;;;142.30;66.60;;;;;;;4.19;100.00;102489.53;4940895;28;20042;-74
2022/03/16 00:41:38;;;;;;;152.73;69.35;;;;;;;4.19;100.00;102484.22;4931190;28;20058;-74
2022/03/16 00:44:04;;;;;;;147.93;69.18;;;;;;;4.11;100.00;102486.66;4940837;28;20033;-75
2022/03/16 00:46:30;;;;;;;168.32;71.13;;;;;;;4.05;100.00;102486.22;4925351;28;20081;-74
2022/03/16 00:48:55;;;;;;;153.43;66.60;;;;;;;3.97;100.00;102470.03;4944544;28;23539;-74
2022/03/16 00:51:21;;;;;;;155.10;67.28;;;;;;;4.03;100.00;102488.16;4926184;28;22374;-74
2022/03/16 00:53:46;;;;;;;150.77;66.30;;;;;;;4.05;100.00;102488.03;4943950;28;20034;-74
2022/03/16 00:56:12;;;;;;;139.98;64.95;;;;;;;4.01;100.00;102481.28;4925755;28;20073;-74
2022/03/16 00:58:38;;;;;;;143.82;65.63;;;;;;;3.89;100.00;102472.47;4942964;28;20070;-74
2022/03/16 01:01:05;;;;;;;141.00;66.97;;;;;;;3.98;100.00;102477.06;4942995;28;20172;-75
2022/03/16 01:03:31;;;;;;;154.90;67.55;;;;;;;3.92;100.00;102477.56;4927875;28;20054;-74
2022/03/16 01:05:56;;;;;;;145.20;67.95;;;;;;;3.88;100.00;102470.78;4940000;28;20038;-74
2022/03/16 01:08:22;;;;;;;151.57;68.55;;;;;;;3.93;100.00;102473.06;4924713;28;20053;-74
2022/03/16 01:10:47;;;;;;;170.73;69.75;;;;;;;3.88;100.00;102468.13;4949050;28;20126;-74
2022/03/16 01:13:13;;;;;;;164.07;69.80;;;;;;;3.87;100.00;102468.28;4918907;28;20117;-74
2022/03/16 01:15:38;;;;;;;171.45;72.63;;;;;;;3.89;100.00;102471.63;4957492;28;20058;-72
2022/03/16 01:18:04;;;;;;;174.73;70.53;;;;;;;3.99;100.00;102477.88;4927242;28;23809;-73
2022/03/16 01:20:29;;;;;;;163.60;69.90;;;;;;;4.06;100.00;102479.06;4942076;28;24950;-73
2022/03/16 01:22:55;;;;;;;175.43;70.65;;;;;;;4.06;100.00;102477.22;4931644;28;20045;-73
2022/03/16 01:25:20;;;;;;;167.10;70.03;;;;;;;3.94;100.00;102464.97;4940027;28;20074;-73
2022/03/16 01:27:46;;;;;;;169.30;70.95;;;;;;;4.05;100.00;102467.56;4941750;28;20124;-72
2022/03/16 01:30:13;;;;;;;165.63;65.80;;;;;;;4.06;100.00;102463.91;4923284;28;20073;-72
2022/03/16 01:32:39;;;;;;;164.82;69.63;;;;;;;4.05;100.00;102462.22;4948429;28;20038;-73
2022/03/16 01:35:05;;;;;;;152.75;67.93;;;;;;;4.13;100.00;102463.38;4925518;28;20689;-72
2022/03/16 01:37:31;;;;;;;163.43;68.10;;;;;;;4.22;100.00;102467.94;4943760;28;20034;-73
2022/03/16 01:39:56;;;;;;;161.48;66.97;;;;;;;4.22;100.00;102478.63;4940556;28;22964;-73
2022/03/16 01:42:22;;;;;;;162.45;69.88;;;;;;;4.26;100.00;102475.53;4916656;28;20100;-73
2022/03/16 01:44:53;;;;;;;163.10;71.68;;;;;;;4.21;100.00;102476.91;4942605;28;20185;-72
2022/03/16 01:47:20;;;;;;;163.45;68.35;;;;;;;4.15;100.00;102482.78;4924779;28;20499;-73
2022/03/16 01:49:46;;;;;;;163.43;67.95;;;;;;;4.18;100.00;102495.88;4929162;28;20038;-73
2022/03/16 01:52:15;;;;;;;160.70;66.13;;;;;;;4.19;100.00;102494.88;4930184;28;20609;-73
2022/03/16 01:54:41;;;;;;;164.25;68.68;;;;;;;4.02;100.00;102488.31;4937578;28;20117;-72
2022/03/16 01:57:10;;;;;;;157.50;66.03;;;;;;;3.92;100.00;102509.56;4927432;28;20591;-72
2022/03/16 01:59:36;;;;;;;148.73;63.97;;;;;;;3.81;100.00;102512.28;4944164;28;20062;-72
2022/03/16 02:02:04;;;;;;;147.80;64.57;;;;;;;3.74;100.00;102516.44;4938680;28;20066;-73
2022/03/16 02:04:29;;;;;;;160.70;66.80;;;;;;;3.59;100.00;102524.72;4931618;28;20058;-73
2022/03/16 02:06:55;;;;;;;153.80;65.20;;;;;;;3.45;100.00;102518.81;4940144;28;20022;-72
2022/03/16 02:09:21;;;;;;;151.88;65.30;;;;;;;3.35;100.00;102532.03;4924097;28;20055;-73
2022/03/16 02:11:47;;;;;;;139.35;62.08;;;;;;;3.32;100.00;102524.28;4941111;28;20038;-74
2022/03/16 02:14:13;;;;;;;140.05;60.67;;;;;;;3.28;100.00;102534.34;4941332;28;20050;-73
2022/03/16 02:16:38;;;;;;;147.52;61.72;;;;;;;3.20;100.00;102531.47;4941833;28;20046;-73
2022/03/16 02:19:04;;;;;;;133.35;62.63;;;;;;;3.13;100.00;102530.28;4926867;28;20094;-72
2022/03/16 02:21:30;;;;;;;138.80;60.88;;;;;;;3.05;100.00;102525.56;4942803;28;20039;-72
2022/03/16 02:23:56;;;;;;;140.98;59.58;;;;;;;3.04;100.00;102534.50;4940377;28;20517;-72
2022/03/16 02:26:26;;;;;;;160.88;63.33;;;;;;;2.96;100.00;102526.28;4916127;28;21805;-72
2022/03/16 02:28:52;;;;;;;151.32;63.45;;;;;;;2.86;100.00;102526.16;4948461;28;20035;-72
2022/03/16 02:31:17;;;;;;;153.82;64.35;;;;;;;2.86;100.00;102530.63;4925412;28;20057;-72
2022/03/16 02:33:43;;;;;;;170.38;63.65;;;;;;;2.83;100.00;102522.88;4940835;28;20030;-72
2022/03/16 02:36:09;;;;;;;146.38;62.95;;;;;;;2.77;100.00;102526.03;4925251;28;20097;-72
2022/03/16 02:38:35;;;;;;;163.55;63.90;;;;;;;2.69;100.00;102517.81;4940900;28;20157;-72
2022/03/16 02:41:01;;;;;;;148.13;62.22;;;;;;;2.69;100.00;102523.13;4926214;28;20081;-72
2022/03/16 02:43:27;;;;;;;153.43;63.63;;;;;;;2.57;100.00;102520.47;4942487;28;20030;-71
2022/03/16 02:45:53;;;;;;;147.38;60.83;;;;;;;2.44;100.00;102527.69;4940524;28;20114;-72
2022/03/16 02:48:19;;;;;;;150.35;64.80;;;;;;;2.30;100.00;102527.91;4926641;28;20143;-72
2022/03/16 02:50:44;;;;;;;158.43;63.95;;;;;;;2.27;100.00;102533.47;4939373;28;20034;-72
2022/03/16 02:53:09;;;;;;;143.75;62.40;;;;;;;2.32;100.00;102532.16;4922173;28;20090;-72
2022/03/16 02:55:35;;;;;;;165.80;66.03;;;;;;;2.35;100.00;102528.41;4936842;28;20623;-71
2022/03/16 02:58:01;;;;;;;170.23;64.82;;;;;;;2.34;100.00;102534.69;4924090;28;20066;-72
2022/03/16 03:00:26;;;;;;;165.57;66.45;;;;;;;2.41;100.00;102525.28;4942570;28;20122;-71
2022/03/16 03:02:53;;;;;;;158.10;65.22;;;;;;;2.47;100.00;102530.13;4936289;28;20034;-72
2022/03/16 03:05:19;;;;;;;160.13;66.85;;;;;;;2.45;100.00;102523.22;4943303;28;20066;-71
2022/03/16 03:07:44;;;;;;;169.05;67.40;;;;;;;2.47;100.00;102523.97;4945305;28;20045;-71
2022/03/16 03:10:10;;;;;;;161.02;63.78;;;;;;;2.41;100.00;102525.28;4925869;28;20047;-71
2022/03/16 03:12:35;;;;;;;145.00;61.90;;;;;;;2.33;100.00;102519.69;4944358;28;20062;-71
2022/03/16 03:15:03;;;;;;;152.18;60.50;;;;;;;2.26;100.00;102527.31;4915178;28;20050;-71
2022/03/16 03:17:28;;;;;;;160.77;63.03;;;;;;;2.23;100.00;102524.03;4940372;28;20043;-72
2022/03/16 03:19:54;;;;;;;207.27;73.60;;;;;;;2.22;100.00;102532.97;4938164;28;20078;-72
2022/03/16 03:22:19;;;;;;;188.27;72.93;;;;;;;2.23;100.00;102538.16;4941842;28;23707;-72
2022/03/16 03:24:44;;;;;;;173.02;68.82;;;;;;;2.29;100.00;102539.53;4937363;28;20047;-73
2022/03/16 03:27:10;;;;;;;194.90;72.65;;;;;;;2.34;100.00;102540.00;4929601;28;20125;-72
2022/03/16 03:29:36;;;;;;;195.00;73.32;;;;;;;2.41;100.00;102538.56;4940634;28;20105;-71
2022/03/16 03:32:01;;;;;;;190.73;71.75;;;;;;;2.41;100.00;102540.38;4924029;28;22670;-72
2022/03/16 03:34:27;;;;;;;157.65;68.10;;;;;;;2.48;100.00;102537.13;4946806;28;20113;-72
2022/03/16 03:36:53;;;;;;;184.10;70.65;;;;;;;2.57;100.00;102540.91;4925604;28;21054;-72
2022/03/16 03:39:18;;;;;;;192.23;71.85;;;;;;;2.53;100.00;102540.31;4947909;28;20684;-71
2022/03/16 03:41:44;;;;;;;175.75;66.88;;;;;;;2.45;100.00;102533.84;4929705;28;20055;-72
2022/03/16 03:44:09;;;;;;;205.23;76.65;;;;;;;2.45;100.00;102540.03;4941081;28;20039;-72
2022/03/16 03:46:35;;;;;;;191.77;69.63;;;;;;;2.49;100.00;102536.19;4940514;28;20539;-72
2022/03/16 03:49:00;;;;;;;175.30;70.18;;;;;;;2.51;100.00;102536.91;4927665;28;20090;-71
2022/03/16 03:51:26;;;;;;;155.32;64.43;;;;;;;2.46;100.00;102539.06;4941488;28;20030;-72
2022/03/16 03:53:51;;;;;;;148.07;65.15;;;;;;;2.33;100.00;102538.31;4925115;28;20042;-72
2022/03/16 03:56:17;;;;;;;166.45;67.00;;;;;;;2.32;100.00;102541.94;4941167;28;20049;-71
2022/03/16 03:58:42;;;;;;;175.77;67.10;;;;;;;2.26;100.00;102531.78;4928256;28;20456;-72
2022/03/16 04:01:08;;;;;;;181.13;68.10;;;;;;;2.22;100.00;102530.31;4957033;28;20038;-72
2022/03/16 04:03:33;;;;;;;166.35;64.57;;;;;;;2.22;100.00;102530.31;4928431;28;20047;-72
2022/03/16 04:05:59;;;;;;;154.25;62.28;;;;;;;2.16;100.00;102528.97;4931592;28;20053;-72
2022/03/16 04:08:25;;;;;;;155.88;62.75;;;;;;;2.12;100.00;102531.00;4944047;28;20173;-72
2022/03/16 04:10:50;;;;;;;167.98;64.65;;;;;;;2.10;100.00;102526.75;4923982;28;20047;-71
2022/03/16 04:13:16;;;;;;;157.48;64.65;;;;;;;2.06;100.00;102525.31;4943702;28;20756;-72
2022/03/16 04:15:41;;;;;;;161.75;63.92;;;;;;;1.99;100.00;102508.97;4931795;28;20553;-72
2022/03/16 04:18:07;;;;;;;162.50;61.58;;;;;;;2.01;100.00;102517.69;4944079;28;20042;-72
2022/03/16 04:20:32;;;;;;;210.07;73.10;;;;;;;2.13;100.00;102511.44;4928563;28;20081;-72
2022/03/16 04:22:58;;;;;;;167.15;68.53;;;;;;;2.19;100.00;102517.25;4943030;28;20121;-72
2022/03/16 04:25:23;;;;;;;203.93;73.88;;;;;;;2.24;100.00;102517.75;4936060;28;20037;-72
2022/03/16 04:27:48;;;;;;;188.88;71.30;;;;;;;2.27;100.00;102521.00;4938987;28;20117;-72
2022/03/16 04:30:14;;;;;;;181.35;72.55;;;;;;;2.39;100.00;102522.75;4945794;28;20514;-72
2022/03/16 04:32:39;;;;;;;192.18;75.30;;;;;;;2.51;100.00;102512.94;4929482;28;20560;-72
2022/03/16 04:35:05;;;;;;;167.50;67.32;;;;;;;2.59;100.00;102518.50;4943843;28;20070;-72
2022/03/16 04:37:30;;;;;;;195.23;73.25;;;;;;;2.51;100.00;102515.63;4927499;28;20693;-71
2022/03/16 04:39:56;;;;;;;184.27;69.90;;;;;;;2.45;100.00;102516.09;4941575;28;20042;-72
2022/03/16 04:42:21;;;;;;;175.57;66.68;;;;;;;2.40;100.00;102523.59;4927595;28;20502;-72
2022/03/16 04:44:47;;;;;;;182.18;69.90;;;;;;;2.36;100.00;102532.78;4944148;28;20121;-72
2022/03/16 04:47:12;;;;;;;171.48;66.85;;;;;;;2.34;100.00;102524.06;4928476;28;20054;-72
2022/03/16 04:49:38;;;;;;;159.32;64.75;;;;;;;2.29;100.00;102521.75;4930080;28;20391;-72
2022/03/16 04:52:03;;;;;;;192.18;68.43;;;;;;;2.17;100.00;102503.22;4941232;28;20566;-72
2022/03/16 04:54:29;;;;;;;184.98;66.75;;;;;;;2.09;100.00;102515.28;4933921;28;20141;-72
2022/03/16 04:56:55;;;;;;;152.10;64.50;;;;;;;2.03;100.00;102510.44;4943907;28;20117;-72
2022/03/16 04:59:21;;;;;;;171.95;65.50;;;;;;;2.05;100.00;102513.81;4929371;28;20066;-72
2022/03/16 05:01:46;;;;;;;176.15;68.65;;;;;;;2.15;100.00;102517.47;4942480;28;20069;-72
2022/03/16 05:04:12;;;;;;;189.57;69.72;;;;;;;2.21;100.00;102510.88;4924529;28;20046;-72
2022/03/16 05:06:37;;;;;;;178.52;70.95;;;;;;;2.35;100.00;102515.09;4943532;28;22446;-71
2022/03/16 05:09:03;;;;;;;182.07;69.15;;;;;;;2.48;100.00;102520.31;4942880;28;20044;-72
2022/03/16 05:11:28;;;;;;;206.90;73.20;;;;;;;2.65;100.00;102514.53;4927034;28;20062;-72
2022/03/16 05:13:54;;;;;;;175.15;70.90;;;;;;;2.73;100.00;102521.91;4942732;28;20034;-72
2022/03/16 05:16:19;;;;;;;199.65;73.78;;;;;;;2.78;100.00;102523.25;4934815;28;20060;-72
2022/03/16 05:18:45;;;;;;;176.88;72.38;;;;;;;2.85;100.00;102528.94;4942312;28;20213;-72
2022/03/16 05:21:12;;;;;;;198.95;73.70;;;;;;;2.84;100.00;102532.56;4928927;28;20054;-71
2022/03/16 05:23:38;;;;;;;200.10;75.50;;;;;;;2.79;100.00;102535.59;4949513;28;20135;-72
2022/03/16 05:26:04;;;;;;;202.63;73.82;;;;;;;2.76;100.00;102527.84;4930878;28;20659;-72
2022/03/16 05:28:29;;;;;;;218.57;75.47;;;;;;;2.73;100.00;102535.22;4941194;28;20042;-71
2022/03/16 05:30:55;;;;;;;180.00;68.43;;;;;;;2.70;100.00;102532.78;4940720;28;20034;-71
2022/03/16 05:33:22;;;;;;;166.52;64.85;;;;;;;2.66;100.00;102528.69;4924500;28;20050;-71
2022/03/16 05:35:48;;;;;;;160.50;65.30;;;;;;;2.72;100.00;102533.53;4941872;28;20151;-71
2022/03/16 05:38:13;;;;;;;190.55;67.40;;;;;;;2.67;100.00;102530.38;4926442;28;20062;-71
2022/03/16 05:40:40;;;;;;;186.07;67.20;;;;;;;2.67;100.00;102527.72;4948696;28;20027;-71
2022/03/16 05:43:05;;;;;;;182.05;67.57;;;;;;;2.56;100.00;102521.44;4926542;28;20050;-71
2022/03/16 05:45:31;;;;;;;159.52;63.45;;;;;;;2.53;100.00;102523.50;4941240;28;20731;-71
2022/03/16 05:47:57;;;;;;;162.52;65.03;;;;;;;2.49;100.00;102512.25;4936717;28;22435;-71
2022/03/16 05:50:24;;;;;;;148.65;64.68;;;;;;;2.55;100.00;102525.03;4945733;28;20046;-71
2022/03/16 05:52:50;;;;;;;163.63;66.00;;;;;;;2.63;100.00;102530.63;4946986;28;20104;-72
2022/03/16 05:55:15;;;;;;;170.25;68.72;;;;;;;2.60;100.00;102530.88;4933132;28;20042;-71
2022/03/16 05:57:43;;;;;;;177.68;69.00;;;;;;;2.61;100.00;102534.38;4942539;28;20046;-71
2022/03/16 06:00:14;;;;;;;169.32;66.50;;;;;;;2.60;100.00;102538.84;4924603;28;20566;-71
2022/03/16 06:02:46;;;;;;;186.73;68.63;;;;;;;2.62;100.00;102539.56;4948574;28;20065;-71
2022/03/16 06:05:12;;;;;;;195.98;73.07;;;;;;;2.71;100.00;102532.69;4928664;28;20078;-71
2022/03/16 06:07:38;;;;;;;220.55;75.07;;;;;;;2.90;100.00;102541.88;4949330;28;20058;-71
2022/03/16 06:10:05;;;;;;;178.90;72.80;;;;;;;2.97;100.00;102549.25;4938159;28;20042;-71
2022/03/16 06:12:31;;;;;;;188.93;73.97;;;;;;;3.02;100.00;102547.09;4933287;28;20065;-71
2022/03/16 06:14:56;;;;;;;189.07;78.30;;;;;;;3.13;100.00;102548.06;4948661;28;20053;-71
2022/03/16 06:17:21;;;;;;;223.88;78.72;;;;;;;3.24;100.00;102553.38;4928770;28;20057;-71
2022/03/16 06:19:47;;;;;;;205.35;78.50;;;;;;;3.32;100.00;102554.44;4941207;28;20069;-71
2022/03/16 06:22:12;;;;;;;211.85;79.68;;;;;;;3.45;100.00;102558.78;4945803;28;20061;-72
2022/03/16 06:24:38;;;;;;;227.20;81.65;;;;;;;3.51;100.00;102553.81;4931703;28;20046;-72
2022/03/16 06:27:04;;;;;;;193.55;77.68;;;;;;;3.58;100.00;102549.69;4945546;28;20457;-72
2022/03/16 06:29:29;;;;;;;191.90;74.65;;;;;;;3.66;100.00;102545.53;4963922;28;20459;-72
2022/03/16 06:31:54;;;;;;;203.63;77.40;;;;;;;3.72;100.00;102548.53;4927423;28;20083;-72
2022/03/16 06:34:20;;;;;;;195.15;76.05;;;;;;;3.76;100.00;102549.97;4943564;28;20052;-72
2022/03/16 06:36:45;;;;;;;211.68;76.95;;;;;;;3.75;100.00;102547.44;4961238;28;20112;-72
2022/03/16 06:39:11;;;;;;;203.23;77.28;;;;;;;3.76;100.00;102551.81;4921876;28;20065;-72
2022/03/16 06:41:36;;;;;;;175.07;74.20;;;;;;;3.81;100.00;102553.09;4921514;28;20043;-72
2022/03/16 06:44:02;;;;;;;219.43;79.22;;;;;;;3.82;100.00;102561.94;4925264;28;20108;-72
2022/03/16 06:46:27;;;;;;;199.18;78.38;;;;;;;3.85;100.00;102560.84;4938843;28;20085;-72
2022/03/16 06:48:53;;;;;;;216.27;80.35;;;;;;;3.96;100.00;102566.13;4925190;28;20285;-73
2022/03/16 06:51:18;;;;;;;189.45;76.47;;;;;;;4.04;100.00;102577.88;4943212;28;20037;-72
2022/03/16 06:53:44;;;;;;;192.93;77.63;;;;;;;4.17;100.00;102587.50;4929970;28;20038;-72
2022/03/16 06:56:09;;;;;;;187.85;76.15;;;;;;;4.32;100.00;102586.25;4932064;28;20051;-72
2022/03/16 06:58:34;;;;;;;193.05;78.78;;;;;;;4.42;100.00;102583.63;4941372;28;20584;-72
2022/03/16 07:01:00;;;;;;;211.93;81.68;;;;;;;4.48;100.00;102586.63;4919545;28;20712;-72
2022/03/16 07:03:25;;;;;;;202.35;79.43;;;;;;;4.59;100.00;102592.88;4941004;28;20045;-72
2022/03/16 07:05:51;;;;;;;188.18;80.10;;;;;;;4.69;100.00;102602.63;4931582;28;20704;-73
2022/03/16 07:08:16;;;;;;;201.85;84.18;;;;;;;4.76;100.00;102600.28;4948249;28;20027;-73
2022/03/16 07:10:43;;;;;;;200.25;82.28;;;;;;;4.83;100.00;102605.94;4946453;28;20066;-73
2022/03/16 07:13:11;;;;;;;189.93;80.70;;;;;;;4.96;100.00;102607.41;4928665;28;20691;-73
2022/03/16 07:15:38;;;;;;;197.65;81.60;;;;;;;5.00;100.00;102618.69;4927021;28;20627;-72
2022/03/16 07:18:03;;;;;;;185.48;81.57;;;;;;;5.05;100.00;102610.25;4916540;28;20038;-73
2022/03/16 07:20:32;;;;;;;175.77;77.28;;;;;;;5.05;100.00;102608.44;4944491;28;20038;-73
2022/03/16 07:23:02;;;;;;;176.90;76.40;;;;;;;5.07;100.00;102609.16;4926705;28;20193;-73
2022/03/16 07:25:27;;;;;;;161.93;71.85;;;;;;;5.15;100.00;102611.16;4942405;28;20034;-73
2022/03/16 07:27:53;;;;;;;161.18;70.72;;;;;;;5.19;100.00;102623.25;4928054;28;20157;-72
2022/03/16 07:30:18;;;;;;;152.30;73.10;;;;;;;5.16;100.00;102618.19;4942321;28;20522;-73
2022/03/16 07:32:44;;;;;;;167.55;70.57;;;;;;;5.16;100.00;102623.53;4943091;28;20050;-72
2022/03/16 07:35:09;;;;;;;153.05;70.53;;;;;;;5.28;100.00;102622.47;4933104;28;20657;-74
2022/03/16 07:37:36;;;;;;;162.68;74.57;;;;;;;5.39;100.00;102618.84;4943905;28;20536;-73
2022/03/16 07:40:02;;;;;;;149.85;71.05;;;;;;;5.46;100.00;102615.50;4945160;28;20112;-73
2022/03/16 07:42:30;;;;;;;156.55;72.25;;;;;;;5.65;100.00;102613.84;4942490;28;20054;-74
2022/03/16 07:44:56;;;;;;;148.63;69.75;;;;;;;6.07;100.00;102608.31;4924235;28;20057;-73
2022/03/16 07:47:21;;;;;;;140.77;67.78;;;;;;;6.21;100.00;102606.09;4944006;28;20026;-73
2022/03/16 07:49:47;;;;;;;129.45;64.68;;;;;;;6.15;100.00;102606.63;4913879;28;20062;-74
2022/03/16 07:52:12;;;;;;;141.50;68.43;;;;;;;6.43;100.00;102615.66;4943927;28;20030;-74
2022/03/16 07:54:37;;;;;;;124.30;65.45;;;;;;;6.61;100.00;102601.53;4946418;28;20076;-74
2022/03/16 07:57:03;;;;;;;124.20;64.18;;;;;;;6.66;100.00;102601.94;4928122;28;20061;-73
2022/03/16 07:59:28;;;;;;;112.25;60.75;;;;;;;6.68;100.00;102602.66;4947049;28;23941;-73
2022/03/16 08:01:54;;;;;;;106.28;57.97;;;;;;;6.89;100.00;102603.28;4929145;28;20069;-73
2022/03/16 08:04:19;;;;;;;114.15;60.72;;;;;;;7.06;100.00;102606.22;4944167;28;20035;-73
2022/03/16 08:06:45;;;;;;;93.90;55.20;;;;;;;7.23;100.00;102610.81;4931671;28;20149;-73
2022/03/16 08:09:10;;;;;;;90.05;54.92;;;;;;;7.42;100.00;102612.53;4945124;28;20035;-72
2022/03/16 08:11:36;;;;;;;90.03;55.20;;;;;;;7.64;100.00;102614.81;4941553;28;22388;-73
2022/03/16 08:14:01;;;;;;;86.68;52.67;;;;;;;7.89;100.00;102615.91;4934139;28;20050;-73
2022/03/16 08:16:26;;;;;;;90.32;53.80;;;;;;;8.40;100.00;102608.22;4941261;28;20034;-73
2022/03/16 08:18:52;;;;;;;83.60;50.97;;;;;;;9.18;100.00;102608.22;4927846;28;20062;-70
2022/03/16 08:21:17;;;;;;;81.57;52.00;;;;;;;9.73;100.00;102607.75;4944630;28;20081;-70
2022/03/16 08:23:43;;;;;;;75.65;47.63;;;;;;;9.84;100.00;102606.59;4925044;28;20043;-72
2022/03/16 08:26:08;;;;;;;72.97;44.35;;;;;;;9.71;100.00;102615.13;4941420;28;20219;-72
2022/03/16 08:28:33;;;;;;;64.22;40.95;;;;;;;9.40;100.00;102616.72;4929290;28;20046;-71
2022/03/16 08:31:01;;;;;;;59.83;38.97;;;;;;;9.35;100.00;102614.50;4942181;28;20080;-71
2022/03/16 08:33:26;;;;;;;53.60;36.22;;;;;;;9.38;100.00;102616.03;4944164;28;20154;-70
2022/03/16 08:35:52;;;;;;;57.50;38.35;;;;;;;9.56;100.00;102622.16;4928206;28;20065;-70
2022/03/16 08:38:17;;;;;;;54.00;37.45;;;;;;;9.87;100.00;102616.22;4951376;28;20057;-73
2022/03/16 08:40:43;;;;;;;57.35;37.97;;;;;;;10.25;100.00;102607.53;4927145;28;20042;-73
2022/03/16 08:43:09;;;;;;;54.10;36.30;;;;;;;10.46;100.00;102603.50;4940500;28;20034;-73
2022/03/16 08:45:34;;;;;;;50.83;36.03;;;;;;;10.73;100.00;102595.03;4929291;28;20081;-72
2022/03/16 08:48:01;;;;;;;49.97;33.97;;;;;;;11.14;100.00;102597.63;4958254;28;20034;-72
2022/03/16 08:50:26;;;;;;;48.20;33.35;;;;;;;11.66;100.00;102596.25;4940338;28;20038;-73
2022/03/16 08:52:52;;;;;;;45.45;31.83;;;;;;;11.90;100.00;102597.97;4945969;28;23623;-72
2022/03/16 08:55:17;;;;;;;47.08;31.02;;;;;;;12.18;100.00;102595.59;4954775;28;20045;-72
2022/03/16 08:57:43;;;;;;;44.67;30.17;;;;;;;12.35;100.00;102590.88;4941648;28;20056;-72
2022/03/16 09:00:15;;;;;;;43.03;31.10;;;;;;;12.95;100.00;102581.00;4952150;28;20034;-70
2022/03/16 09:02:42;;;;;;;45.35;28.42;;;;;;;13.22;100.00;102582.19;4938789;28;20068;-71
2022/03/16 09:05:08;;;;;;;37.00;27.30;;;;;;;13.23;100.00;102582.03;4969494;28;20031;-70
2022/03/16 09:07:33;;;;;;;41.33;26.73;;;;;;;13.23;100.00;102584.75;4940505;28;20165;-71
2022/03/16 09:09:58;;;;;;;39.08;27.90;;;;;;;12.81;100.00;102574.53;4910402;28;23947;-71
2022/03/16 09:12:24;;;;;;;38.45;26.27;;;;;;;13.04;100.00;102580.72;4910673;28;20030;-71
2022/03/16 09:14:49;;;;;;;39.97;27.25;;;;;;;12.92;100.00;102576.81;4939363;28;23840;-71
2022/03/16 09:17:17;;;;;;;44.35;26.95;;;;;;;13.36;100.00;102567.84;4948587;28;20026;-72
2022/03/16 09:19:43;;;;;;;38.67;26.92;;;;;;;13.08;100.00;102575.78;4940243;28;20058;-72
2022/03/16 09:22:09;;;;;;;39.10;26.70;;;;;;;13.23;100.00;102573.91;4942604;28;20085;-73
2022/03/16 09:24:34;;;;;;;40.00;26.42;;;;;;;13.38;100.00;102576.63;4935726;28;20050;-73
2022/03/16 09:27:00;;;;;;;40.05;26.40;;;;;;;13.41;100.00;102573.53;4945523;28;20074;-73
2022/03/16 09:29:26;;;;;;;37.05;27.17;;;;;;;13.77;100.00;102570.81;4928014;28;20422;-72
2022/03/16 09:31:51;;;;;;;36.78;26.17;;;;;;;14.28;100.00;102556.28;4941962;28;20062;-72
2022/03/16 09:34:17;;;;;;;37.63;26.80;;;;;;;14.19;100.00;102552.06;4944655;28;20743;-72
2022/03/16 09:36:45;;;;;;;36.95;26.15;;;;;;;13.99;100.00;102552.69;4933583;28;20061;-72
2022/03/16 09:39:11;;;;;;;39.25;26.67;;;;;;;13.92;100.00;102551.81;4943082;28;20026;-72
2022/03/16 09:41:36;;;;;;;38.78;25.23;;;;;;;13.97;100.00;102549.38;4917499;28;20145;-72
2022/03/16 09:44:03;;;;;;;34.92;23.77;;;;;;;13.83;100.00;102542.16;4941000;28;20058;-73
2022/03/16 09:46:36;;;;;;;34.88;24.60;;;;;;;13.61;100.00;102533.97;4945238;28;20216;-73
2022/03/16 09:49:04;;;;;;;32.78;22.55;;;;;;;13.79;100.00;102536.28;4960419;28;20493;-73
2022/03/16 09:51:34;;;;;;;31.50;22.35;;;;;;;14.14;100.00;102517.41;4946549;28;20054;-72
2022/03/16 09:54:00;;;;;;;30.92;22.88;;;;;;;14.52;100.00;102523.34;4960513;28;20045;-72
2022/03/16 09:56:26;;;;;;;26.85;19.92;;;;;;;14.81;78.53;102518.72;4916733;28;20050;-72
2022/03/16 09:58:51;;;;;;;29.40;20.23;;;;;;;14.52;81.49;102517.09;4960045;28;20059;-72
2022/03/16 10:01:18;;;;;;;29.45;21.33;;;;;;;14.46;89.30;102510.56;4962252;28;20049;-71
2022/03/16 10:03:48;;;;;;;27.98;19.88;;;;;;;14.80;79.67;102522.47;4947289;28;20718;-72
2022/03/16 10:06:15;;;;;;;28.42;20.40;;;;;;;14.65;74.67;102519.06;4945757;28;20492;-72
2022/03/16 10:08:40;;;;;;;26.63;19.98;;;;;;;14.23;75.61;102501.84;4917227;28;20398;-72
2022/03/16 10:14:05;;;;;;;28.00;20.13;;;;;;;14.16;73.59;102530.75;4923519;28;20718;-72
2022/03/16 10:19:15;;;;;;;27.67;20.35;;;;;;;14.68;76.80;102527.63;4930169;28;20054;-72
2022/03/16 10:21:40;;;;;;;26.58;19.48;;;;;;;14.47;72.21;102525.78;4942085;28;20536;-72
2022/03/16 10:24:06;;;;;;;27.17;19.55;;;;;;;14.36;72.97;102520.94;4921549;28;21089;-72
2022/03/16 10:26:31;;;;;;;29.58;19.27;;;;;;;14.06;79.36;102518.38;4908894;28;20071;-72
2022/03/16 10:29:01;;;;;;;27.23;20.20;;;;;;;14.11;83.39;102522.38;4929777;28;20054;-72
2022/03/16 10:31:26;;;;;;;27.80;20.73;;;;;;;14.39;83.01;102517.81;4912504;28;20047;-72
2022/03/16 10:33:56;;;;;;;29.92;21.23;;;;;;;14.87;79.34;102520.66;4923696;28;20038;-72
2022/03/16 10:36:23;;;;;;;27.25;20.15;;;;;;;14.96;73.19;102527.59;4920342;28;20062;-72
2022/03/16 10:39:01;;;;;;;27.40;19.38;;;;;;;15.09;71.78;102521.38;4948976;28;20532;-72
2022/03/16 10:47:00;;;;;;;21.80;15.48;;;;;;;15.07;61.50;102519.91;4923653;28;20062;-72
2022/03/16 10:49:34;;;;;;;22.30;14.90;;;;;;;15.35;61.87;102517.09;4947688;28;21701;-72
2022/03/16 10:52:10;;;;;;;20.33;14.95;;;;;;;15.28;58.44;102508.94;4927053;28;20046;-72
2022/03/16 10:54:37;;;;;;;23.00;16.17;;;;;;;14.87;58.49;102506.25;4941092;28;22653;-72
2022/03/16 10:57:06;;;;;;;25.73;16.48;;;;;;;14.71;59.30;102502.00;4937000;28;20040;-72
2022/03/16 10:59:33;;;;;;;25.13;15.88;;;;;;;14.77;58.96;102501.19;4910697;28;20054;-72
2022/03/16 11:02:12;;;;;;;21.15;15.48;;;;;;;14.43;59.43;102496.56;4905359;28;20073;-72
2022/03/16 11:04:39;;;;;;;21.70;16.02;;;;;;;14.33;61.01;102505.88;4910951;28;20717;-72
2022/03/16 11:07:06;;;;;;;24.17;16.88;;;;;;;14.06;61.35;102515.66;4926229;28;20042;-72